LiveATC.Net - Listen to live air traffic control over the Internet!


ICAO: SBDN  IATA: PPB   Airport: Presidente Prudente State Airport
City: Presidente Prudente/Sao Paulo
Country: Brazil   Continent: South America
SBDN METAR Weather: SBDN 260600Z 13013KT CAVOK 19/13 Q1015
SBDN ADS-B Flight Tracking (ADSBExchange)
SBDN Flight Activity (FlightAware)

SBDN Twr/App
Feed Status: DOWN
Last heard on: 2022-09-06 23:40:39 (19 days 7 hours 48 minutes ago)
Archive Access: SBDN Twr/App
FacilityFrequency
Air-to-Air123.450
Curitiba Sector 13133.595
Prudente Approach118.450
Prudente Tower125.450

NOTICE

Unauthorized use prohibited. See LiveATC.net Terms of Service


Airport/ARTCC Code
Frequency Search
(e.g., 124.400, 128.75)
Site-wide search
 


Browse Feeds
Top 50 Feeds
HF Oceanic Feeds
Coverage Map
Bad Weather Areas

LiveATC FAQ
Offer LiveATC feed
Contact LiveATC.net
Press Inquiries

LiveATC on iPhone
LiveATC on Android

LiveATC Mobile
(Mobile browser)

ATC Audio Archives
Interesting Recordings

LiveATC Forums


Home Page
About LiveATC.net


Terms of Use
Privacy Policy

AIRMETs/SIGMETs

FAA Airport Status
NAS Status
Arrival Demand


Server Software By:
Icecast.org
Liquidsoap